Time;durP1;ratioP1;P1;durP2;ratioP2;P2;SDS_P1;SDS_P2;PMS_P1;PMS_P2;Temp;Humidity;BMP_temperature;BMP_pressure;BME280_temperature;BME280_humidity;BME280_pressure;Samples;Min_cycle;Max_cycle;Signal;HPM_P1;HPM_P2
2021/01/06 00:00:52;;;;;;;14.70;11.60;;;17.30;27.00;;;;;;5115993;28;20596;-54
2021/01/06 00:03:20;;;;;;;15.47;11.13;;;17.30;27.10;;;;;;5116228;28;20535;-54
2021/01/06 00:05:50;;;;;;;14.32;11.15;;;17.30;27.60;;;;;;5116026;28;20300;-54
2021/01/06 00:08:16;;;;;;;14.60;10.95;;;17.30;27.00;;;;;;5115747;28;20149;-54
2021/01/06 00:10:45;;;;;;;12.57;10.50;;;17.30;27.10;;;;;;5115936;28;20169;-54
2021/01/06 00:13:11;;;;;;;13.48;11.25;;;17.30;27.10;;;;;;5116109;28;20441;-54
2021/01/06 00:15:37;;;;;;;12.02;10.65;;;17.30;27.10;;;;;;5115881;28;20161;-54
2021/01/06 00:18:04;;;;;;;13.10;11.00;;;17.30;27.10;;;;;;5097823;28;20248;-54
2021/01/06 00:20:32;;;;;;;11.95;10.32;;;17.30;27.10;;;;;;5097462;28;20204;-54
2021/01/06 00:22:58;;;;;;;12.82;11.05;;;17.30;27.10;;;;;;5115454;28;20223;-54
2021/01/06 00:25:27;;;;;;;15.02;11.25;;;17.30;27.10;;;;;;5115873;28;20149;-54
2021/01/06 00:27:53;;;;;;;13.63;11.43;;;17.30;27.10;;;;;;5115512;28;20160;-54
2021/01/06 00:30:38;;;;;;;13.35;10.77;;;17.30;27.10;;;;;;5115756;28;20612;-54
2021/01/06 00:33:11;;;;;;;12.85;10.00;;;17.30;27.10;;;;;;5115544;28;20239;-54
2021/01/06 00:35:37;;;;;;;12.55;9.50;;;17.30;27.10;;;;;;5115589;28;20149;-54
2021/01/06 00:38:04;;;;;;;15.93;11.17;;;17.30;27.10;;;;;;5096942;28;20608;-54
2021/01/06 00:40:32;;;;;;;11.27;9.35;;;17.30;27.10;;;;;;5115612;28;20705;-54
2021/01/06 00:42:59;;;;;;;15.30;10.52;;;17.30;27.10;;;;;;5115281;28;20254;-54
2021/01/06 00:45:25;;;;;;;16.85;10.65;;;17.30;27.10;;;;;;5115457;28;20164;-54
2021/01/06 00:47:51;;;;;;;13.23;10.90;;;17.30;27.10;;;;;;5115185;28;20181;-54
2021/01/06 00:50:20;;;;;;;12.32;11.02;;;17.30;27.10;;;;;;5115257;28;20153;-54
2021/01/06 00:52:46;;;;;;;11.63;9.32;;;17.30;27.10;;;;;;5114917;28;20179;-54
2021/01/06 00:55:12;;;;;;;13.30;11.03;;;17.30;27.10;;;;;;5115533;28;20153;-54
2021/01/06 00:57:38;;;;;;;13.65;11.27;;;17.30;27.10;;;;;;5115222;28;20171;-53
2021/01/06 01:00:09;;;;;;;14.20;9.47;;;17.30;27.10;;;;;;5115071;28;20232;-53
2021/01/06 01:02:35;;;;;;;14.18;11.65;;;17.30;27.10;;;;;;5114920;28;20176;-53
2021/01/06 01:05:01;;;;;;;11.80;9.97;;;17.30;27.10;;;;;;5114811;28;20231;-54
2021/01/06 01:07:27;;;;;;;12.65;10.88;;;17.30;27.10;;;;;;5130595;27;20161;-53
2021/01/06 01:09:54;;;;;;;14.50;11.57;;;17.30;27.10;;;;;;5114966;28;20256;-54
2021/01/06 01:12:22;;;;;;;11.70;9.88;;;17.30;27.10;;;;;;5114829;28;20153;-54
2021/01/06 01:14:49;;;;;;;12.13;10.23;;;17.30;27.10;;;;;;5114830;28;20153;-54
2021/01/06 01:17:15;;;;;;;13.27;10.05;;;17.30;27.10;;;;;;5114562;28;20181;-54
2021/01/06 01:19:40;;;;;;;12.43;10.93;;;17.30;27.10;;;;;;5114834;28;20210;-54
2021/01/06 01:22:07;;;;;;;12.10;10.67;;;17.30;27.10;;;;;;5113250;28;20445;-54
2021/01/06 01:24:33;;;;;;;10.48;9.35;;;17.30;27.10;;;;;;5114843;28;20154;-54
2021/01/06 01:26:58;;;;;;;11.93;10.63;;;17.30;27.10;;;;;;5114910;28;20615;-54
2021/01/06 01:29:24;;;;;;;12.00;9.93;;;17.30;27.10;;;;;;5114567;28;20260;-53
2021/01/06 01:31:49;;;;;;;14.20;9.93;;;17.30;27.10;;;;;;5114406;28;20635;-53
2021/01/06 01:34:15;;;;;;;12.00;10.07;;;17.30;27.10;;;;;;5096462;28;20577;-54
2021/01/06 01:36:48;;;;;;;13.23;10.50;;;17.30;27.10;;;;;;5114509;28;20207;-54
2021/01/06 01:39:14;;;;;;;12.63;9.15;;;17.20;27.10;;;;;;5113972;28;20157;-54
2021/01/06 01:41:40;;;;;;;15.15;10.23;;;17.20;27.10;;;;;;5096251;28;20635;-54
2021/01/06 01:44:06;;;;;;;11.77;9.63;;;17.20;27.10;;;;;;5114296;28;20590;-55
2021/01/06 01:47:01;;;;;;;10.50;9.40;;;17.20;27.10;;;;;;5114353;28;20187;-55
2021/01/06 01:49:35;;;;;;;13.10;10.35;;;17.20;27.10;;;;;;5114370;28;20171;-54
2021/01/06 01:52:18;;;;;;;12.52;9.80;;;17.20;27.10;;;;;;5113875;28;20175;-53
2021/01/06 01:54:44;;;;;;;10.48;8.95;;;17.20;27.10;;;;;;5114234;28;20623;-53
2021/01/06 01:57:20;;;;;;;8.52;7.68;;;17.20;27.10;;;;;;5114163;28;20162;-53
2021/01/06 01:59:59;;;;;;;13.48;10.18;;;17.20;27.10;;;;;;5114224;28;20148;-53
2021/01/06 02:02:43;;;;;;;13.43;10.20;;;17.30;27.10;;;;;;5114057;28;20667;-53
2021/01/06 02:05:14;;;;;;;13.30;10.35;;;17.20;27.10;;;;;;5114130;28;20232;-53
2021/01/06 02:07:48;;;;;;;10.88;9.63;;;17.20;27.10;;;;;;5113712;28;20153;-53
2021/01/06 02:10:23;;;;;;;13.45;10.95;;;17.20;27.10;;;;;;5114144;28;20175;-54
2021/01/06 02:12:54;;;;;;;11.45;10.02;;;17.20;27.10;;;;;;5113876;28;20192;-54
2021/01/06 02:15:29;;;;;;;10.32;9.07;;;17.20;27.10;;;;;;5096134;28;20199;-53
2021/01/06 02:17:55;;;;;;;10.98;8.68;;;17.20;27.10;;;;;;5113841;28;20160;-53
2021/01/06 02:20:25;;;;;;;11.48;9.13;;;17.20;27.10;;;;;;5114037;28;20167;-53
2021/01/06 02:22:52;;;;;;;10.75;9.00;;;17.20;27.10;;;;;;5113158;28;20232;-53
2021/01/06 02:25:20;;;;;;;10.98;9.38;;;17.20;27.10;;;;;;5114103;28;20165;-53
2021/01/06 02:27:46;;;;;;;14.30;10.07;;;17.20;27.10;;;;;;5113850;28;20203;-53
2021/01/06 02:30:13;;;;;;;12.43;9.27;;;17.20;27.10;;;;;;5113864;28;20154;-54
2021/01/06 02:32:40;;;;;;;12.05;9.82;;;17.20;27.10;;;;;;5113805;28;20640;-54
2021/01/06 02:35:08;;;;;;;10.25;8.80;;;17.20;27.10;;;;;;5117410;28;20168;-54
2021/01/06 02:37:34;;;;;;;10.68;9.27;;;17.20;27.10;;;;;;5117265;28;20184;-54
2021/01/06 02:40:00;;;;;;;11.50;9.38;;;17.20;27.10;;;;;;5117860;28;20185;-54
2021/01/06 02:42:26;;;;;;;10.47;9.27;;;17.20;27.10;;;;;;5117676;28;20755;-54
2021/01/06 02:44:52;;;;;;;9.47;8.30;;;17.20;27.10;;;;;;5117788;28;20942;-54
2021/01/06 02:47:21;;;;;;;10.57;8.30;;;17.20;27.10;;;;;;5099451;28;20875;-54
2021/01/06 02:49:49;;;;;;;10.90;9.00;;;17.20;27.10;;;;;;5117744;28;20411;-54
2021/01/06 02:52:22;;;;;;;13.40;9.65;;;17.20;27.10;;;;;;5117140;28;20157;-54
2021/01/06 02:54:52;;;;;;;9.68;8.68;;;17.20;27.10;;;;;;5117595;28;20164;-54
2021/01/06 02:57:19;;;;;;;11.32;9.10;;;17.20;27.10;;;;;;5117541;28;20203;-53
2021/01/06 02:59:47;;;;;;;11.25;9.82;;;17.20;27.10;;;;;;5117356;28;20161;-53
2021/01/06 03:02:17;;;;;;;10.63;8.85;;;17.20;27.10;;;;;;5117161;28;20189;-54
2021/01/06 03:04:48;;;;;;;10.05;8.95;;;17.20;27.10;;;;;;5117337;28;20160;-53
2021/01/06 03:07:16;;;;;;;11.23;10.00;;;17.20;27.10;;;;;;5116877;28;20193;-54
2021/01/06 03:09:43;;;;;;;12.50;9.38;;;17.20;27.10;;;;;;5117262;28;20192;-54
2021/01/06 03:12:17;;;;;;;10.88;9.20;;;17.20;27.10;;;;;;5117241;28;20168;-53
2021/01/06 03:14:43;;;;;;;10.88;9.50;;;17.20;27.10;;;;;;5117097;28;20149;-54
2021/01/06 03:17:11;;;;;;;11.35;9.23;;;17.20;27.10;;;;;;5117014;28;20189;-53
2021/01/06 03:19:42;;;;;;;12.02;9.27;;;17.20;27.10;;;;;;5117111;28;20222;-54
2021/01/06 03:22:10;;;;;;;10.32;8.77;;;17.20;27.70;;;;;;5116621;28;20184;-54
2021/01/06 03:24:50;;;;;;;9.73;8.00;;;17.20;27.10;;;;;;5117399;28;20157;-54
2021/01/06 03:27:17;;;;;;;12.27;8.45;;;17.20;27.20;;;;;;5116811;28;20152;-54
2021/01/06 03:29:44;;;;;;;10.02;8.15;;;17.20;27.20;;;;;;5117051;28;20165;-54
2021/01/06 03:32:37;;;;;;;10.82;9.25;;;17.20;27.20;;;;;;5116710;28;20161;-53
2021/01/06 03:35:33;;;;;;;11.20;9.77;;;17.20;27.20;;;;;;5079298;28;20260;-54
2021/01/06 03:38:15;;;;;;;9.27;8.35;;;17.20;27.20;;;;;;5116199;28;20153;-54
2021/01/06 03:40:47;;;;;;;11.50;8.57;;;17.20;27.20;;;;;;5116600;28;20180;-54
2021/01/06 03:43:15;;;;;;;11.43;8.65;;;17.10;27.10;;;;;;5116394;28;20181;-54
2021/01/06 03:45:45;;;;;;;9.55;8.25;;;17.10;27.10;;;;;;5116022;28;20162;-54
2021/01/06 03:48:27;;;;;;;10.05;9.00;;;17.20;27.20;;;;;;5132226;27;20190;-54
2021/01/06 03:51:00;;;;;;;10.93;9.02;;;17.10;27.10;;;;;;5116349;28;20200;-53
2021/01/06 03:53:35;;;;;;;9.90;8.20;;;17.10;27.10;;;;;;5115855;28;20240;-54
2021/01/06 03:56:03;;;;;;;9.10;8.20;;;17.10;27.10;;;;;;5116474;28;20148;-54
2021/01/06 03:58:34;;;;;;;11.30;9.40;;;17.10;27.20;;;;;;5116094;28;20168;-54
2021/01/06 04:01:26;;;;;;;10.05;7.80;;;17.10;27.20;;;;;;5098074;28;20199;-54
2021/01/06 04:04:05;;;;;;;11.65;9.15;;;17.10;27.20;;;;;;5116207;28;20162;-54
2021/01/06 04:06:34;;;;;;;10.68;8.90;;;17.10;27.20;;;;;;5116142;28;20216;-54
2021/01/06 04:09:04;;;;;;;11.05;9.52;;;17.10;27.20;;;;;;5115658;28;20153;-54
2021/01/06 04:11:35;;;;;;;10.88;8.88;;;17.10;27.20;;;;;;5116232;28;20214;-54
2021/01/06 04:14:01;;;;;;;9.88;8.40;;;17.10;27.20;;;;;;5131879;27;20165;-54
2021/01/06 04:16:28;;;;;;;11.00;9.27;;;17.10;27.20;;;;;;5116183;28;20181;-54
2021/01/06 04:18:54;;;;;;;10.70;8.57;;;17.10;27.20;;;;;;5115833;28;20164;-54
2021/01/06 04:21:20;;;;;;;10.27;9.00;;;17.10;27.70;;;;;;5116473;28;20619;-54
2021/01/06 04:23:46;;;;;;;11.30;8.73;;;17.10;27.20;;;;;;5115539;28;20185;-54
2021/01/06 04:26:14;;;;;;;9.30;8.00;;;17.10;27.20;;;;;;5115701;28;20427;-54
2021/01/06 04:28:42;;;;;;;8.68;7.72;;;17.10;27.20;;;;;;5115617;28;20394;-54
2021/01/06 04:31:20;;;;;;;9.95;8.23;;;17.10;27.20;;;;;;5131618;27;20230;-54
2021/01/06 04:33:55;;;;;;;8.85;7.95;;;17.10;27.30;;;;;;5115553;28;20149;-54
2021/01/06 04:36:28;;;;;;;13.48;9.57;;;17.10;27.20;;;;;;5115644;28;20183;-54
2021/01/06 04:38:57;;;;;;;10.75;8.95;;;17.10;27.30;;;;;;5115099;28;20153;-54
2021/01/06 04:41:38;;;;;;;9.63;7.90;;;17.10;27.80;;;;;;5097394;28;20194;-53
2021/01/06 04:44:22;;;;;;;9.18;8.27;;;17.10;27.30;;;;;;5115507;28;20153;-54
2021/01/06 04:47:19;;;;;;;10.88;8.32;;;17.10;27.30;;;;;;5097063;28;20177;-54
2021/01/06 04:50:12;;;;;;;8.73;7.88;;;17.10;27.30;;;;;;5115482;28;20192;-54
2021/01/06 04:53:18;;;;;;;10.05;8.82;;;17.10;27.30;;;;;;5114876;28;20173;-54
2021/01/06 04:56:08;;;;;;;8.75;7.85;;;17.10;27.30;;;;;;5115023;28;20157;-54
2021/01/06 04:59:07;;;;;;;8.52;7.22;;;17.10;27.30;;;;;;5115124;28;20240;-54
2021/01/06 05:01:46;;;;;;;8.57;7.50;;;17.10;27.20;;;;;;5114963;28;20153;-54
2021/01/06 05:04:39;;;;;;;9.27;8.32;;;17.10;27.30;;;;;;5115252;28;20149;-54
2021/01/06 05:07:42;;;;;;;8.88;7.88;;;17.10;27.30;;;;;;5114658;28;20175;-54
2021/01/06 05:10:26;;;;;;;8.95;8.05;;;17.10;27.30;;;;;;5114829;28;20153;-54
2021/01/06 05:12:57;;;;;;;10.48;7.93;;;17.10;27.30;;;;;;5114874;28;20153;-54
2021/01/06 05:15:38;;;;;;;10.30;7.65;;;17.10;27.30;;;;;;5096570;28;20172;-55
2021/01/06 05:18:05;;;;;;;8.38;7.30;;;17.10;27.30;;;;;;5114801;28;20145;-54
2021/01/06 05:20:31;;;;;;;8.25;7.45;;;17.10;27.30;;;;;;5096891;28;20161;-54
2021/01/06 05:22:56;;;;;;;8.07;6.87;;;17.10;27.30;;;;;;5096041;28;20207;-54
2021/01/06 05:25:22;;;;;;;8.90;7.70;;;17.10;27.30;;;;;;5130599;27;20272;-54
2021/01/06 05:27:52;;;;;;;8.93;8.13;;;17.10;27.30;;;;;;5114625;28;20423;-54
2021/01/06 05:30:28;;;;;;;8.25;7.30;;;17.10;27.30;;;;;;5096733;28;20180;-54
2021/01/06 05:33:00;;;;;;;10.23;8.90;;;17.10;27.30;;;;;;5114485;28;20144;-54
2021/01/06 05:35:36;;;;;;;9.98;7.30;;;17.10;27.30;;;;;;5114591;28;20180;-54
2021/01/06 05:38:03;;;;;;;8.20;7.32;;;17.10;27.30;;;;;;5114012;28;20153;-53
2021/01/06 05:40:31;;;;;;;9.07;7.60;;;17.10;27.30;;;;;;5114400;28;20203;-54
2021/01/06 05:43:00;;;;;;;8.75;7.60;;;17.10;27.30;;;;;;5114458;28;20180;-53
2021/01/06 05:45:36;;;;;;;9.93;7.43;;;17.10;27.30;;;;;;5130375;27;20551;-53
2021/01/06 05:48:15;;;;;;;8.60;7.50;;;17.10;27.30;;;;;;5114153;28;20198;-53
2021/01/06 05:50:49;;;;;;;9.05;7.82;;;17.10;27.30;;;;;;5114287;28;20191;-53
2021/01/06 05:53:36;;;;;;;8.70;7.30;;;17.10;27.30;;;;;;5113723;28;20692;-53
2021/01/06 05:56:30;;;;;;;7.88;6.97;;;17.10;27.20;;;;;;5114242;28;20195;-53
2021/01/06 05:59:14;;;;;;;7.90;7.10;;;17.10;27.30;;;;;;5114128;28;20658;-53
2021/01/06 06:01:50;;;;;;;8.90;7.95;;;17.10;27.20;;;;;;5095754;28;20173;-53
2021/01/06 06:04:44;;;;;;;7.70;6.90;;;17.20;27.30;;;;;;5096007;28;20215;-53
2021/01/06 06:07:12;;;;;;;8.63;7.72;;;17.10;27.30;;;;;;5113574;28;20161;-53
2021/01/06 06:09:52;;;;;;;8.13;6.78;;;17.20;27.30;;;;;;5119228;28;20663;-53
2021/01/06 06:12:42;;;;;;;8.20;6.95;;;17.20;27.30;;;;;;5120888;28;20152;-53
2021/01/06 06:15:27;;;;;;;6.93;6.20;;;17.20;27.30;;;;;;5120972;28;20508;-54
2021/01/06 06:18:20;;;;;;;9.05;6.15;;;17.20;27.30;;;;;;5120766;28;20152;-53
2021/01/06 06:21:00;;;;;;;10.10;8.20;;;17.20;27.30;;;;;;5120807;28;20157;-53
2021/01/06 06:23:44;;;;;;;7.63;6.85;;;17.20;27.30;;;;;;5120179;28;20508;-53
2021/01/06 06:26:26;;;;;;;8.55;7.53;;;17.20;27.40;;;;;;5121211;28;20157;-53
2021/01/06 06:29:10;;;;;;;7.47;6.70;;;17.20;27.40;;;;;;5102193;28;20172;-53
2021/01/06 06:31:37;;;;;;;7.97;7.15;;;17.20;27.30;;;;;;5120590;28;20175;-53
2021/01/06 06:34:08;;;;;;;8.98;7.32;;;17.20;27.30;;;;;;5120758;28;20150;-53
2021/01/06 06:36:37;;;;;;;7.70;6.90;;;17.20;27.30;;;;;;5120582;28;20154;-53
2021/01/06 06:39:14;;;;;;;7.45;6.75;;;17.20;27.30;;;;;;5120125;28;20262;-53
2021/01/06 06:41:41;;;;;;;8.63;6.53;;;17.20;27.30;;;;;;5120527;28;20179;-54
2021/01/06 06:44:29;;;;;;;7.35;6.65;;;17.20;27.30;;;;;;5120656;28;20181;-54
2021/01/06 06:47:08;;;;;;;7.50;6.70;;;17.20;27.30;;;;;;5120497;28;20601;-54
2021/01/06 06:49:58;;;;;;;9.20;6.68;;;17.20;27.30;;;;;;5120645;28;20157;-54
2021/01/06 06:52:38;;;;;;;8.32;7.53;;;17.20;27.30;;;;;;5101721;28;20161;-54
2021/01/06 06:55:31;;;;;;;9.32;6.53;;;17.30;27.40;;;;;;5120730;28;20185;-54
2021/01/06 06:58:22;;;;;;;9.77;7.65;;;17.30;27.30;;;;;;5120473;28;20157;-54
2021/01/06 07:00:48;;;;;;;7.45;6.68;;;17.20;27.20;;;;;;5120405;28;20145;-54
2021/01/06 07:03:15;;;;;;;7.28;6.57;;;17.30;27.30;;;;;;5120519;28;20257;-54
2021/01/06 07:05:55;;;;;;;7.45;6.20;;;17.30;27.30;;;;;;5119795;28;20232;-54
2021/01/06 07:08:32;;;;;;;8.32;6.97;;;17.30;27.30;;;;;;5120025;28;20186;-53
2021/01/06 07:11:10;;;;;;;7.30;6.40;;;17.30;27.30;;;;;;5120367;28;20643;-54
2021/01/06 07:13:37;;;;;;;7.72;6.70;;;17.30;27.30;;;;;;5120383;28;20164;-53
2021/01/06 07:16:07;;;;;;;7.63;6.50;;;17.30;27.30;;;;;;5102148;28;20168;-53
2021/01/06 07:18:38;;;;;;;7.70;6.90;;;17.30;27.30;;;;;;5120254;28;20153;-54
2021/01/06 07:21:14;;;;;;;7.18;6.47;;;17.30;27.30;;;;;;5116309;28;20177;-54
2021/01/06 07:24:01;;;;;;;7.72;6.28;;;17.30;27.30;;;;;;5116775;28;20191;-54
2021/01/06 07:26:31;;;;;;;7.47;6.22;;;17.30;27.20;;;;;;5098754;28;20685;-54
2021/01/06 07:29:02;;;;;;;7.75;7.00;;;17.30;27.20;;;;;;5117098;28;20169;-54
2021/01/06 07:31:36;;;;;;;6.03;5.38;;;17.30;27.20;;;;;;5116884;28;20728;-54
2021/01/06 07:34:05;;;;;;;7.45;6.78;;;17.30;27.20;;;;;;5116917;28;20153;-54
2021/01/06 07:36:34;;;;;;;8.07;6.75;;;17.30;27.20;;;;;;5116657;28;20164;-54
2021/01/06 07:39:01;;;;;;;6.32;5.72;;;17.30;27.20;;;;;;5116352;28;20164;-53
2021/01/06 07:41:28;;;;;;;8.65;6.75;;;17.40;27.30;;;;;;5116535;28;20212;-53
2021/01/06 07:44:01;;;;;;;6.90;6.30;;;17.40;27.30;;;;;;5116473;28;20234;-53
2021/01/06 07:46:33;;;;;;;7.93;7.10;;;17.40;27.20;;;;;;5116500;28;20149;-53
2021/01/06 07:49:50;;;;;;;7.13;6.43;;;17.40;27.20;;;;;;5116367;28;20623;-54
2021/01/06 07:52:22;;;;;;;7.65;6.95;;;17.40;27.20;;;;;;5070669;28;20196;-54
2021/01/06 07:54:56;;;;;;;8.15;6.30;;;17.40;27.20;;;;;;5116508;28;20156;-54
2021/01/06 07:57:48;;;;;;;7.22;6.53;;;17.40;27.20;;;;;;5116288;28;20168;-54
2021/01/06 08:00:27;;;;;;;8.23;6.85;;;17.40;27.20;;;;;;5112101;28;20636;-54
2021/01/06 08:03:12;;;;;;;7.88;6.75;;;17.40;27.10;;;;;;5116227;28;20643;-54
2021/01/06 08:05:38;;;;;;;6.35;5.53;;;17.40;27.10;;;;;;5115891;28;20211;-54
2021/01/06 08:08:07;;;;;;;6.60;5.90;;;17.40;27.10;;;;;;5115698;28;20153;-54
2021/01/06 08:10:35;;;;;;;7.28;6.55;;;17.40;27.10;;;;;;5116272;28;20160;-54
2021/01/06 08:13:11;;;;;;;6.82;6.10;;;17.50;27.10;;;;;;5098016;28;20256;-53
2021/01/06 08:15:38;;;;;;;6.90;6.30;;;17.50;27.10;;;;;;5115876;28;20210;-53
2021/01/06 08:18:41;;;;;;;8.55;6.10;;;17.50;27.10;;;;;;5115880;28;20165;-53
2021/01/06 08:21:22;;;;;;;7.63;6.05;;;17.50;27.10;;;;;;5085833;28;20177;-54
2021/01/06 08:24:26;;;;;;;8.32;7.10;;;17.50;27.10;;;;;;5115381;28;20199;-54
2021/01/06 08:26:55;;;;;;;6.72;6.10;;;17.50;27.10;;;;;;5115677;28;20152;-54
2021/01/06 08:29:24;;;;;;;6.70;6.00;;;17.50;27.10;;;;;;5115982;28;20196;-54
2021/01/06 08:32:05;;;;;;;6.50;5.80;;;17.50;27.00;;;;;;5115423;28;20187;-54
2021/01/06 08:34:33;;;;;;;6.88;5.78;;;17.50;27.10;;;;;;5115688;28;20162;-55
2021/01/06 08:37:12;;;;;;;6.00;5.40;;;17.60;27.10;;;;;;5115158;28;20160;-54
2021/01/06 08:39:51;;;;;;;6.70;6.00;;;17.60;27.10;;;;;;5115693;28;20198;-54
2021/01/06 08:42:19;;;;;;;8.20;5.15;;;17.60;27.10;;;;;;5115424;28;20184;-54
2021/01/06 08:44:57;;;;;;;6.65;5.70;;;17.60;27.00;;;;;;5115498;28;20149;-54
2021/01/06 08:47:35;;;;;;;7.22;6.53;;;17.60;27.00;;;;;;5115183;28;20153;-53
2021/01/06 08:50:16;;;;;;;7.05;6.28;;;17.60;27.00;;;;;;5115845;28;20524;-54
2021/01/06 08:53:03;;;;;;;6.95;6.13;;;17.60;27.00;;;;;;5114994;28;20160;-54
2021/01/06 08:55:41;;;;;;;6.93;5.60;;;17.70;27.90;;;;;;5115177;28;20191;-55
2021/01/06 08:58:10;;;;;;;7.22;6.15;;;17.70;27.00;;;;;;5115321;28;20244;-54
2021/01/06 09:00:36;;;;;;;7.05;5.85;;;17.70;27.00;;;;;;5115160;28;20161;-54
2021/01/06 09:03:07;;;;;;;6.97;6.30;;;17.70;26.90;;;;;;5114967;28;20196;-55
2021/01/06 09:05:49;;;;;;;6.90;5.93;;;17.70;26.90;;;;;;5114925;28;20469;-54
2021/01/06 09:08:22;;;;;;;6.60;5.90;;;17.70;26.90;;;;;;5096280;28;20213;-54
2021/01/06 09:11:01;;;;;;;7.10;6.35;;;17.70;26.90;;;;;;5114843;28;20169;-54
2021/01/06 09:13:40;;;;;;;9.02;7.15;;;17.70;26.90;;;;;;5114865;28;20160;-54
2021/01/06 09:16:14;;;;;;;6.88;6.10;;;17.70;26.80;;;;;;5114749;28;20181;-54
2021/01/06 09:19:06;;;;;;;7.07;6.28;;;17.70;26.80;;;;;;5096345;28;20523;-54
2021/01/06 09:21:32;;;;;;;7.30;6.60;;;17.70;26.80;;;;;;5100161;28;20185;-54
2021/01/06 09:24:34;;;;;;;6.75;6.05;;;17.70;27.20;;;;;;5096216;28;20287;-55
2021/01/06 09:27:39;;;;;;;6.40;5.47;;;17.80;26.80;;;;;;5114619;28;20184;-54
2021/01/06 09:30:15;;;;;;;6.10;5.40;;;17.80;26.70;;;;;;5111534;28;20181;-53
2021/01/06 09:32:41;;;;;;;6.70;5.90;;;17.60;26.50;;;;;;5114316;28;20481;-54
2021/01/06 09:35:14;;;;;;;6.03;5.47;;;17.80;26.60;;;;;;5114643;28;20156;-54
2021/01/06 09:37:48;;;;;;;6.75;6.00;;;17.80;26.60;;;;;;5113991;28;20176;-54
2021/01/06 09:40:17;;;;;;;6.75;6.05;;;17.80;26.60;;;;;;5114578;28;20512;-54
2021/01/06 09:42:44;;;;;;;6.45;5.72;;;;;;;;;;5113997;28;20177;-54
2021/01/06 09:45:25;;;;;;;7.25;6.55;;;17.80;26.10;;;;;;5112864;28;20165;-54
2021/01/06 09:47:59;;;;;;;7.22;6.20;;;17.80;26.60;;;;;;5114283;28;20141;-54
2021/01/06 09:50:34;;;;;;;7.18;6.47;;;17.90;26.60;;;;;;5114252;28;20152;-54
2021/01/06 09:53:08;;;;;;;6.80;6.10;;;17.90;26.60;;;;;;5113856;28;20149;-54
2021/01/06 09:55:35;;;;;;;8.18;6.65;;;17.90;26.60;;;;;;5114254;28;20157;-54
2021/01/06 09:58:36;;;;;;;7.65;6.85;;;17.90;26.60;;;;;;5114145;28;20159;-54
2021/01/06 10:01:23;;;;;;;7.03;5.80;;;17.90;26.60;;;;;;5068535;28;20185;-54
2021/01/06 10:03:54;;;;;;;7.15;6.20;;;17.90;26.60;;;;;;5114195;28;20694;-54
2021/01/06 10:06:41;;;;;;;7.47;6.13;;;17.90;26.60;;;;;;5113967;28;20310;-54
2021/01/06 10:09:30;;;;;;;7.57;6.75;;;17.90;26.70;;;;;;5114052;28;20153;-54
2021/01/06 10:12:19;;;;;;;7.43;6.75;;;17.90;26.60;;;;;;5113987;28;20497;-54
2021/01/06 10:15:09;;;;;;;7.82;6.35;;;18.00;26.70;;;;;;5114080;28;20697;-54
2021/01/06 10:17:51;;;;;;;8.27;6.00;;;18.00;26.70;;;;;;5113948;28;20157;-54
2021/01/06 10:20:32;;;;;;;7.20;6.50;;;18.00;26.70;;;;;;5113914;28;20184;-53
2021/01/06 10:23:35;;;;;;;9.63;7.13;;;18.00;26.70;;;;;;5113256;28;20181;-54
2021/01/06 10:26:20;;;;;;;7.93;5.70;;;18.00;26.70;;;;;;5113882;28;20670;-55
2021/01/06 10:28:48;;;;;;;8.40;7.60;;;18.00;26.70;;;;;;5113595;28;20173;-54
2021/01/06 10:31:26;;;;;;;7.75;6.13;;;18.00;26.70;;;;;;5113956;28;20153;-54
2021/01/06 10:34:11;;;;;;;8.40;7.50;;;;;;;;;;5113911;28;20626;-55
2021/01/06 10:37:01;;;;;;;8.43;6.15;;;18.00;26.30;;;;;;5113956;28;20165;-54
2021/01/06 10:39:34;;;;;;;9.25;6.57;;;18.00;26.70;;;;;;5114059;28;20157;-55
2021/01/06 10:42:02;;;;;;;8.82;6.85;;;18.00;26.70;;;;;;5113411;28;20655;-54
2021/01/06 10:44:30;;;;;;;7.30;6.60;;;18.00;26.70;;;;;;5095543;28;20632;-54
2021/01/06 10:47:18;;;;;;;8.63;6.35;;;18.00;26.70;;;;;;5095416;28;20624;-54
2021/01/06 10:49:44;;;;;;;6.53;5.85;;;18.00;30.30;;;;;;5113634;28;20252;-55
2021/01/06 10:52:09;;;;;;;10.30;7.10;;;18.00;26.30;;;;;;5094930;28;20257;-54
2021/01/06 10:54:54;;;;;;;8.27;6.47;;;18.00;26.70;;;;;;5115004;28;20370;-54
2021/01/06 10:57:46;;;;;;;7.82;7.05;;;18.00;26.70;;;;;;5117371;28;20524;-54
2021/01/06 11:00:22;;;;;;;7.40;6.28;;;18.10;26.80;;;;;;5117560;28;20176;-54
2021/01/06 11:03:27;;;;;;;9.13;6.57;;;18.00;26.70;;;;;;5117344;28;20181;-54
2021/01/06 11:05:52;;;;;;;8.93;6.70;;;18.10;26.80;;;;;;5116427;28;20711;-54
2021/01/06 11:08:44;;;;;;;8.40;6.67;;;18.10;26.80;;;;;;5098778;28;20176;-54
2021/01/06 11:11:22;;;;;;;7.63;6.82;;;18.10;26.80;;;;;;5099089;28;20211;-54
2021/01/06 11:14:21;;;;;;;7.63;6.90;;;18.10;27.30;;;;;;5117127;28;20165;-55
2021/01/06 11:17:10;;;;;;;7.78;6.47;;;;;;;;;;5117287;28;20240;-53
2021/01/06 11:19:43;;;;;;;8.48;6.75;;;18.10;26.30;;;;;;5070043;28;20187;-54
2021/01/06 11:22:21;;;;;;;6.88;6.28;;;18.10;26.80;;;;;;5116672;28;20272;-55
2021/01/06 11:25:03;;;;;;;9.68;6.88;;;18.10;26.80;;;;;;5116994;28;20222;-54
2021/01/06 11:28:04;;;;;;;7.60;6.63;;;18.10;26.80;;;;;;5116825;28;20177;-54
2021/01/06 11:30:40;;;;;;;7.63;6.55;;;18.10;26.80;;;;;;5116877;28;20634;-54
2021/01/06 11:33:14;;;;;;;10.35;7.28;;;18.10;26.80;;;;;;5116893;28;20189;-54
2021/01/06 11:36:01;;;;;;;7.57;6.50;;;18.10;26.80;;;;;;5116867;28;20182;-54
2021/01/06 11:38:47;;;;;;;7.60;6.90;;;18.10;26.80;;;;;;5116374;28;20191;-54
2021/01/06 11:41:23;;;;;;;7.82;6.95;;;18.10;26.80;;;;;;5116676;28;20153;-53
2021/01/06 11:44:06;;;;;;;9.00;8.10;;;18.10;26.80;;;;;;5116451;28;20184;-53
2021/01/06 11:46:45;;;;;;;7.63;6.93;;;18.10;26.80;;;;;;5116592;28;20149;-53
2021/01/06 11:49:24;;;;;;;8.80;6.65;;;18.20;26.80;;;;;;5116529;28;20152;-53
2021/01/06 11:52:24;;;;;;;7.22;6.57;;;18.20;26.80;;;;;;5116526;28;20153;-53
2021/01/06 11:55:07;;;;;;;7.75;6.95;;;18.20;26.80;;;;;;5116513;28;20282;-53
2021/01/06 11:57:46;;;;;;;7.57;6.50;;;18.10;26.70;;;;;;5116279;28;20229;-54
2021/01/06 12:00:12;;;;;;;6.25;5.70;;;18.20;26.70;;;;;;5116472;28;20627;-54
2021/01/06 12:02:44;;;;;;;8.23;7.40;;;18.20;26.70;;;;;;5116190;28;20189;-53
2021/01/06 12:05:12;;;;;;;8.25;7.30;;;18.20;26.70;;;;;;5116243;28;20172;-53
2021/01/06 12:08:02;;;;;;;7.97;7.18;;;18.20;26.60;;;;;;5115063;28;20620;-53
2021/01/06 12:10:54;;;;;;;10.25;7.70;;;18.20;26.60;;;;;;5115947;28;20608;-53
2021/01/06 12:13:34;;;;;;;8.60;7.75;;;18.20;26.60;;;;;;5104928;28;20185;-61
2021/01/06 12:16:08;;;;;;;6.80;6.15;;;18.20;26.60;;;;;;5115942;28;20208;-60
2021/01/06 12:19:12;;;;;;;7.40;6.70;;;18.20;26.50;;;;;;5115960;28;20164;-60
2021/01/06 12:22:01;;;;;;;8.45;7.28;;;18.20;26.50;;;;;;5116041;28;20164;-61
2021/01/06 12:24:30;;;;;;;7.97;7.18;;;18.20;26.50;;;;;;5115750;28;20176;-61
2021/01/06 12:27:10;;;;;;;7.93;7.18;;;18.20;26.50;;;;;;5097413;28;20172;-61
2021/01/06 12:29:51;;;;;;;7.53;6.72;;;18.20;26.50;;;;;;5115872;28;20157;-61
2021/01/06 12:32:50;;;;;;;6.97;6.35;;;18.20;26.50;;;;;;5115661;28;20207;-61
2021/01/06 12:35:41;;;;;;;7.82;7.03;;;18.20;26.40;;;;;;5115732;28;20153;-61
2021/01/06 12:38:26;;;;;;;11.35;7.22;;;18.20;26.50;;;;;;5115072;28;20184;-61
2021/01/06 12:40:52;;;;;;;7.03;6.25;;;18.20;26.40;;;;;;5097198;28;20197;-61
2021/01/06 12:43:28;;;;;;;9.67;6.83;;;18.20;26.40;;;;;;5115358;28;20185;-61
2021/01/06 12:46:06;;;;;;;7.15;6.45;;;18.30;26.50;;;;;;5115597;28;20156;-61
2021/01/06 12:49:00;;;;;;;6.88;6.22;;;18.30;26.40;;;;;;5115438;28;20157;-61
2021/01/06 12:51:31;;;;;;;6.57;5.32;;;18.30;26.40;;;;;;5114503;28;20177;-61
2021/01/06 12:54:07;;;;;;;7.00;6.30;;;18.30;26.40;;;;;;5114758;28;20168;-61
2021/01/06 12:56:43;;;;;;;8.75;6.28;;;18.30;26.40;;;;;;5115299;28;20164;-61
2021/01/06 12:59:14;;;;;;;8.43;6.38;;;18.30;26.40;;;;;;5115148;28;20523;-61
2021/01/06 13:01:48;;;;;;;7.10;6.45;;;18.30;26.40;;;;;;5115049;28;20153;-61
2021/01/06 13:04:17;;;;;;;8.77;7.88;;;18.30;26.90;;;;;;5115218;28;20169;-61
2021/01/06 13:06:57;;;;;;;8.35;7.57;;;18.30;26.30;;;;;;5114978;28;20211;-61
2021/01/06 13:09:40;;;;;;;6.63;5.95;;;18.30;26.40;;;;;;5115185;28;20205;-61
2021/01/06 13:12:09;;;;;;;9.30;6.55;;;18.30;26.40;;;;;;5115060;28;20168;-61
2021/01/06 13:14:35;;;;;;;7.43;6.72;;;18.30;26.30;;;;;;5115259;28;20247;-61
2021/01/06 13:17:19;;;;;;;7.60;6.87;;;18.30;26.30;;;;;;5096983;28;20635;-61
2021/01/06 13:20:33;;;;;;;6.97;6.28;;;18.30;26.30;;;;;;5114141;28;20157;-61
2021/01/06 13:23:13;;;;;;;7.68;7.05;;;18.30;26.40;;;;;;5110913;28;20208;-61
2021/01/06 13:25:42;;;;;;;7.70;6.90;;;18.30;26.30;;;;;;5114576;28;20149;-61
2021/01/06 13:28:32;;;;;;;8.50;6.75;;;18.30;26.30;;;;;;5114866;28;20262;-61